createdAt,value
2022-12-22T00:00:04.741Z,17.60
2022-12-22T00:02:50.329Z,17.50
2022-12-22T00:05:35.490Z,17.50
2022-12-22T00:08:20.948Z,17.60
2022-12-22T00:11:06.499Z,17.40
2022-12-22T00:13:51.843Z,17.50
2022-12-22T00:16:37.260Z,17.50
2022-12-22T00:19:22.368Z,17.60
2022-12-22T00:22:07.609Z,17.50
2022-12-22T00:24:52.617Z,17.50
2022-12-22T00:27:45.775Z,17.50
2022-12-22T00:30:32.277Z,17.60
2022-12-22T00:33:18.068Z,17.50
2022-12-22T00:36:03.184Z,17.50
2022-12-22T00:38:48.474Z,17.50
2022-12-22T00:41:33.628Z,17.50
2022-12-22T00:44:18.700Z,17.50
2022-12-22T00:47:04.403Z,17.50
2022-12-22T00:49:50.562Z,17.50
2022-12-22T00:52:36.908Z,17.50
2022-12-22T00:55:23.166Z,17.40
2022-12-22T00:58:08.219Z,17.40
2022-12-22T01:00:53.276Z,17.50
2022-12-22T01:03:38.477Z,17.50
2022-12-22T01:06:27.508Z,17.50
2022-12-22T01:09:12.950Z,17.50
2022-12-22T01:11:57.921Z,17.50
2022-12-22T01:14:42.993Z,17.50
2022-12-22T01:17:28.586Z,17.50
2022-12-22T01:20:13.755Z,17.60
2022-12-22T01:22:59.206Z,17.50
2022-12-22T01:25:44.338Z,17.50
2022-12-22T01:28:32.647Z,17.50
2022-12-22T01:31:30.350Z,17.50
2022-12-22T01:34:15.603Z,17.50
2022-12-22T01:37:00.655Z,17.60
2022-12-22T01:39:45.791Z,17.40
2022-12-22T01:42:31.304Z,17.50
2022-12-22T01:45:19.407Z,17.50
2022-12-22T01:48:04.736Z,17.50
2022-12-22T01:50:52.374Z,17.40
2022-12-22T01:53:39.470Z,17.50
2022-12-22T01:56:25.065Z,17.50
2022-12-22T01:59:12.343Z,17.50
2022-12-22T02:01:58.495Z,17.40
2022-12-22T02:04:45.965Z,17.60
2022-12-22T02:07:50.183Z,17.50
2022-12-22T02:10:41.191Z,17.50
2022-12-22T02:13:37.009Z,17.40
2022-12-22T02:16:30.921Z,17.50
2022-12-22T02:19:18.659Z,17.50
2022-12-22T02:22:15.771Z,17.50
2022-12-22T02:25:05.459Z,17.50
2022-12-22T02:27:53.221Z,17.40
2022-12-22T02:30:38.232Z,17.40
2022-12-22T02:33:23.400Z,17.50
2022-12-22T02:36:23.799Z,17.50
2022-12-22T02:39:12.048Z,17.60
2022-12-22T02:42:15.051Z,17.60
2022-12-22T02:45:00.208Z,17.60
2022-12-22T02:47:52.808Z,17.60
2022-12-22T02:50:51.689Z,17.50
2022-12-22T02:53:37.770Z,17.60
2022-12-22T02:56:24.775Z,17.60
2022-12-22T02:59:10.357Z,17.70
2022-12-22T03:01:56.516Z,17.60
2022-12-22T03:04:41.770Z,17.60
2022-12-22T03:07:27.251Z,17.60
2022-12-22T03:10:12.308Z,17.60
2022-12-22T03:12:57.416Z,17.60
2022-12-22T03:15:42.595Z,17.60
2022-12-22T03:18:28.992Z,17.70
2022-12-22T03:21:14.564Z,17.70
2022-12-22T03:23:59.640Z,18.10
2022-12-22T03:26:26.711Z,17.80
2022-12-22T03:28:53.492Z,17.90
2022-12-22T03:31:20.158Z,18.00
2022-12-22T03:33:46.902Z,17.90
2022-12-22T03:36:13.486Z,18.00
2022-12-22T03:38:40.504Z,18.00
2022-12-22T03:41:07.137Z,18.10
2022-12-22T03:44:12.234Z,18.10
2022-12-22T03:46:38.867Z,18.10
2022-12-22T03:49:11.651Z,18.00
2022-12-22T03:51:45.016Z,18.00
2022-12-22T03:54:12.716Z,18.00
2022-12-22T03:56:39.726Z,18.00
2022-12-22T03:59:06.631Z,17.90
2022-12-22T04:01:34.482Z,17.90
2022-12-22T04:04:01.216Z,18.00
2022-12-22T04:06:27.879Z,18.00
2022-12-22T04:08:54.677Z,18.00
2022-12-22T04:11:39.814Z,18.20
2022-12-22T04:14:06.558Z,18.00
2022-12-22T04:16:33.393Z,17.90
2022-12-22T04:19:00.193Z,17.90
2022-12-22T04:21:26.777Z,18.00
2022-12-22T04:23:53.529Z,18.00
2022-12-22T04:26:22.007Z,17.90
2022-12-22T04:28:49.378Z,17.90
2022-12-22T04:31:16.492Z,18.00
2022-12-22T04:33:43.337Z,17.90
2022-12-22T04:36:10.372Z,17.90
2022-12-22T04:38:36.956Z,17.90
2022-12-22T04:41:03.695Z,17.90
2022-12-22T04:43:30.449Z,17.90
2022-12-22T04:45:57.497Z,17.90
2022-12-22T04:48:25.040Z,17.90
2022-12-22T04:50:52.803Z,17.90
2022-12-22T04:53:19.807Z,17.90
2022-12-22T04:55:47.245Z,18.00
2022-12-22T04:58:14.597Z,17.80
2022-12-22T05:00:41.496Z,17.90
2022-12-22T05:03:08.401Z,17.90
2022-12-22T05:05:36.918Z,17.90
2022-12-22T05:08:04.037Z,17.90
2022-12-22T05:10:30.737Z,17.80
2022-12-22T05:12:57.459Z,17.90
2022-12-22T05:15:31.187Z,17.90
2022-12-22T05:17:58.706Z,17.90
2022-12-22T05:20:25.567Z,17.90
2022-12-22T05:22:52.217Z,17.80
2022-12-22T05:25:19.928Z,17.90
2022-12-22T05:27:47.983Z,17.90
2022-12-22T05:30:15.308Z,17.90
2022-12-22T05:32:41.961Z,17.90
2022-12-22T05:35:08.746Z,17.90
2022-12-22T05:37:35.724Z,17.90
2022-12-22T05:40:02.448Z,18.00
2022-12-22T05:42:37.805Z,17.90
2022-12-22T05:45:06.529Z,17.90
2022-12-22T05:47:33.617Z,17.90
2022-12-22T05:50:00.243Z,17.90
2022-12-22T05:52:27.007Z,18.00
2022-12-22T05:54:53.778Z,17.90
2022-12-22T05:57:20.323Z,17.90
2022-12-22T05:59:46.964Z,17.80
2022-12-22T06:02:13.684Z,17.90
2022-12-22T06:04:40.371Z,17.90
2022-12-22T06:07:07.035Z,17.90
2022-12-22T06:09:33.623Z,17.90
2022-12-22T06:12:00.203Z,17.90
2022-12-22T06:14:26.781Z,17.90
2022-12-22T06:16:53.353Z,17.80
2022-12-22T06:19:20.098Z,17.90
2022-12-22T06:21:46.666Z,17.90
2022-12-22T06:24:13.261Z,17.90
2022-12-22T06:26:39.900Z,17.90
2022-12-22T06:29:06.515Z,17.90
2022-12-22T06:31:33.089Z,17.90
2022-12-22T06:33:59.698Z,18.10
2022-12-22T06:36:26.262Z,17.90
2022-12-22T06:38:52.869Z,17.90
2022-12-22T06:41:39.464Z,17.80
2022-12-22T06:44:06.325Z,17.90
2022-12-22T06:46:32.946Z,17.90
2022-12-22T06:48:59.601Z,18.00
2022-12-22T06:51:26.209Z,17.90
2022-12-22T06:53:52.794Z,17.90
2022-12-22T06:56:19.383Z,17.90
2022-12-22T06:58:45.943Z,18.00
2022-12-22T07:01:12.578Z,17.90
2022-12-22T07:03:39.301Z,17.80
2022-12-22T07:06:06.097Z,17.90
2022-12-22T07:08:34.026Z,17.90
2022-12-22T07:11:00.805Z,17.90
2022-12-22T07:13:29.137Z,17.90
2022-12-22T07:16:00.535Z,17.80
2022-12-22T07:18:29.183Z,17.80
2022-12-22T07:20:56.115Z,17.80
2022-12-22T07:23:22.824Z,17.80
2022-12-22T07:25:49.451Z,17.80
2022-12-22T07:28:20.684Z,17.70
2022-12-22T07:30:48.959Z,17.80
2022-12-22T07:33:15.827Z,17.80
2022-12-22T07:35:42.453Z,17.80
2022-12-22T07:38:09.038Z,17.80
2022-12-22T07:40:39.579Z,17.80
2022-12-22T07:43:08.605Z,17.80
2022-12-22T07:45:35.193Z,17.80
2022-12-22T07:48:02.083Z,17.70
2022-12-22T07:50:28.741Z,17.70
2022-12-22T07:52:56.343Z,17.70
2022-12-22T07:55:23.760Z,17.70
2022-12-22T07:57:50.772Z,17.70
2022-12-22T08:00:17.983Z,17.70
2022-12-22T08:02:49.213Z,17.70
2022-12-22T08:05:16.323Z,17.70
2022-12-22T08:07:43.215Z,17.70
2022-12-22T08:10:10.410Z,17.70
2022-12-22T08:12:37.049Z,17.70
2022-12-22T08:15:04.127Z,17.70
2022-12-22T08:17:30.695Z,17.70
2022-12-22T08:19:57.479Z,17.70
2022-12-22T08:22:24.092Z,17.70
2022-12-22T08:24:51.180Z,17.60
2022-12-22T08:27:25.859Z,17.70
2022-12-22T08:29:55.489Z,17.70
2022-12-22T08:32:22.048Z,17.70
2022-12-22T08:34:52.375Z,17.70
2022-12-22T08:37:20.472Z,17.70
2022-12-22T08:39:48.607Z,17.60
2022-12-22T08:42:17.201Z,17.70
2022-12-22T08:44:45.836Z,17.70
2022-12-22T08:47:16.925Z,17.70
2022-12-22T08:49:44.076Z,17.70
2022-12-22T08:52:17.795Z,17.70
2022-12-22T08:54:45.208Z,17.60
2022-12-22T08:57:11.804Z,17.70
2022-12-22T08:59:38.426Z,17.70
2022-12-22T09:02:05.668Z,17.70
2022-12-22T09:04:33.175Z,17.60
2022-12-22T09:07:00.276Z,17.60
2022-12-22T09:09:26.945Z,17.70
2022-12-22T09:11:53.630Z,17.70
2022-12-22T09:14:20.202Z,17.60
2022-12-22T09:16:46.983Z,17.70
2022-12-22T09:19:13.679Z,17.70
2022-12-22T09:21:40.493Z,17.80
2022-12-22T09:24:07.771Z,17.70
2022-12-22T09:26:34.541Z,17.70
2022-12-22T09:29:01.109Z,17.60
2022-12-22T09:31:27.990Z,17.80
2022-12-22T09:33:54.679Z,17.50
2022-12-22T09:36:22.761Z,17.70
2022-12-22T09:38:49.408Z,17.80
2022-12-22T09:41:34.958Z,17.70
2022-12-22T09:44:05.276Z,17.70
2022-12-22T09:46:34.220Z,17.70
2022-12-22T09:49:01.036Z,17.60
2022-12-22T09:51:28.704Z,17.70
2022-12-22T09:53:58.329Z,17.70
2022-12-22T09:56:26.157Z,17.70
2022-12-22T09:58:52.988Z,17.70
2022-12-22T10:01:38.460Z,17.70
2022-12-22T10:04:25.374Z,17.60
2022-12-22T10:07:10.766Z,17.60
2022-12-22T10:09:52.663Z,17.70
2022-12-22T10:12:21.072Z,17.70
2022-12-22T10:14:48.875Z,17.70
2022-12-22T10:17:20.180Z,17.60
2022-12-22T10:19:48.401Z,17.70
2022-12-22T10:22:31.663Z,17.70
2022-12-22T10:25:00.738Z,17.70
2022-12-22T10:27:29.687Z,17.70
2022-12-22T10:30:16.311Z,17.70
2022-12-22T10:32:42.972Z,17.70
2022-12-22T10:35:09.601Z,17.70
2022-12-22T10:37:37.110Z,17.70
2022-12-22T10:40:21.219Z,17.80
2022-12-22T10:42:50.037Z,17.70
2022-12-22T10:45:20.815Z,18.00
2022-12-22T10:47:51.535Z,17.70
2022-12-22T10:50:18.536Z,17.80
2022-12-22T10:52:53.187Z,17.90
2022-12-22T10:55:25.578Z,17.80
2022-12-22T10:57:52.447Z,17.70
2022-12-22T11:00:23.752Z,17.70
2022-12-22T11:02:57.920Z,17.80
2022-12-22T11:05:24.711Z,17.80
2022-12-22T11:07:51.638Z,17.80
2022-12-22T11:10:21.387Z,17.80
2022-12-22T11:13:06.879Z,17.80
2022-12-22T11:15:53.798Z,17.80
2022-12-22T11:18:20.435Z,17.80
2022-12-22T11:21:02.217Z,17.80
2022-12-22T11:23:41.658Z,17.70
2022-12-22T11:26:08.275Z,17.80
2022-12-22T11:28:50.594Z,17.80
2022-12-22T11:31:36.354Z,17.80
2022-12-22T11:34:20.802Z,17.80
2022-12-22T11:36:50.681Z,17.80
2022-12-22T11:39:26.740Z,17.70
2022-12-22T11:42:03.474Z,17.70
2022-12-22T11:44:42.599Z,17.80
2022-12-22T11:47:19.984Z,17.80
2022-12-22T11:49:49.678Z,17.80
2022-12-22T11:52:42.789Z,17.70
2022-12-22T11:55:29.942Z,17.70
2022-12-22T11:58:03.062Z,17.50
2022-12-22T12:01:04.185Z,17.60
2022-12-22T12:03:24.247Z,17.70
2022-12-22T12:05:59.829Z,17.90
2022-12-22T12:08:45.266Z,17.90
2022-12-22T12:11:18.936Z,17.80
2022-12-22T12:13:51.072Z,17.90
2022-12-22T12:16:21.145Z,17.90
2022-12-22T12:19:06.504Z,17.90
2022-12-22T12:21:42.807Z,17.90
2022-12-22T12:24:29.190Z,18.10
2022-12-22T12:27:05.076Z,17.90
2022-12-22T12:29:37.633Z,17.90
2022-12-22T12:32:10.450Z,17.80
2022-12-22T12:34:47.838Z,17.90
2022-12-22T12:37:20.221Z,18.00
2022-12-22T12:39:55.432Z,17.90
2022-12-22T12:42:37.531Z,18.00
2022-12-22T12:45:05.157Z,17.80
2022-12-22T12:47:32.835Z,17.90
2022-12-22T12:49:59.528Z,18.00
2022-12-22T12:52:43.423Z,17.90
2022-12-22T12:55:33.667Z,17.90
2022-12-22T12:58:01.976Z,17.90
2022-12-22T13:00:34.616Z,17.90
2022-12-22T13:03:06.174Z,17.90
2022-12-22T13:05:36.471Z,17.70
2022-12-22T13:08:35.300Z,17.90
2022-12-22T13:11:07.806Z,17.90
2022-12-22T13:13:39.757Z,17.90
2022-12-22T13:16:06.414Z,18.10
2022-12-22T13:18:33.004Z,17.90
2022-12-22T13:21:34.487Z,18.00
2022-12-22T13:24:22.790Z,18.00
2022-12-22T13:26:42.020Z,18.00
2022-12-22T13:29:09.873Z,18.00
2022-12-22T13:31:42.063Z,17.80
2022-12-22T13:34:17.946Z,17.90
2022-12-22T13:36:45.628Z,17.90
2022-12-22T13:39:13.223Z,17.90
2022-12-22T13:41:44.500Z,18.00
2022-12-22T13:44:14.039Z,18.00
2022-12-22T13:46:42.071Z,18.00
2022-12-22T13:49:10.365Z,18.00
2022-12-22T13:51:37.963Z,18.10
2022-12-22T13:54:24.937Z,18.00
2022-12-22T13:56:52.812Z,18.00
2022-12-22T13:59:22.515Z,18.00
2022-12-22T14:01:50.203Z,18.00
2022-12-22T14:04:17.072Z,18.00
2022-12-22T14:06:43.776Z,18.10
2022-12-22T14:09:10.335Z,18.00
2022-12-22T14:11:37.022Z,17.90
2022-12-22T14:14:07.538Z,18.00
2022-12-22T14:16:34.251Z,18.00
2022-12-22T14:19:01.026Z,18.00
2022-12-22T14:21:27.716Z,18.10
2022-12-22T14:23:54.427Z,18.00
2022-12-22T14:26:25.989Z,17.90
2022-12-22T14:28:54.144Z,17.90
2022-12-22T14:31:20.812Z,18.00
2022-12-22T14:33:51.492Z,18.00
2022-12-22T14:36:20.703Z,18.10
2022-12-22T14:38:49.124Z,18.10
2022-12-22T14:41:41.643Z,18.10
2022-12-22T14:44:14.456Z,18.00
2022-12-22T14:46:42.178Z,18.10
2022-12-22T14:49:16.543Z,18.00
2022-12-22T14:51:43.321Z,18.00
2022-12-22T14:54:18.822Z,18.00
2022-12-22T14:56:50.000Z,18.00
2022-12-22T14:59:27.175Z,18.00
2022-12-22T15:02:01.267Z,18.00
2022-12-22T15:04:28.250Z,18.00
2022-12-22T15:07:05.760Z,18.00
2022-12-22T15:10:14.687Z,18.00
2022-12-22T15:12:19.073Z,18.40
2022-12-22T15:14:49.391Z,18.00
2022-12-22T15:17:25.768Z,18.00
2022-12-22T15:19:55.124Z,18.00
2022-12-22T15:22:21.693Z,18.00
2022-12-22T15:24:48.360Z,18.00
2022-12-22T15:27:14.938Z,18.00
2022-12-22T15:29:41.689Z,17.90
2022-12-22T15:32:12.594Z,17.90
2022-12-22T15:34:39.352Z,17.90
2022-12-22T15:37:05.997Z,17.90
2022-12-22T15:39:33.640Z,17.90
2022-12-22T15:42:00.638Z,17.90
2022-12-22T15:44:29.112Z,18.00
2022-12-22T15:46:59.086Z,18.00
2022-12-22T15:49:26.897Z,18.00
2022-12-22T15:51:56.149Z,17.80
2022-12-22T15:54:23.003Z,17.80
2022-12-22T15:56:51.444Z,17.90
2022-12-22T15:59:19.278Z,17.90
2022-12-22T16:01:45.978Z,17.90
2022-12-22T16:04:13.737Z,17.90
2022-12-22T16:06:40.484Z,18.00
2022-12-22T16:09:10.160Z,18.20
2022-12-22T16:11:37.598Z,17.90
2022-12-22T16:14:04.343Z,17.90
2022-12-22T16:16:31.047Z,17.80
2022-12-22T16:18:57.679Z,17.80
2022-12-22T16:21:27.763Z,17.90
2022-12-22T16:23:55.567Z,17.90
2022-12-22T16:26:22.266Z,18.00
2022-12-22T16:28:48.879Z,17.90
2022-12-22T16:31:19.987Z,18.00
2022-12-22T16:33:46.691Z,18.00
2022-12-22T16:36:13.797Z,18.00
2022-12-22T16:38:41.277Z,17.80
2022-12-22T16:41:18.086Z,18.00
2022-12-22T16:43:51.527Z,18.10
2022-12-22T16:46:19.331Z,18.00
2022-12-22T16:48:48.044Z,17.80
2022-12-22T16:51:16.045Z,17.90
2022-12-22T16:53:42.627Z,18.00
2022-12-22T16:56:17.963Z,18.00
2022-12-22T16:58:45.206Z,18.00
2022-12-22T17:01:30.375Z,18.00
2022-12-22T17:04:00.137Z,18.10
2022-12-22T17:06:26.896Z,18.00
2022-12-22T17:08:53.513Z,18.00
2022-12-22T17:11:22.525Z,18.00
2022-12-22T17:13:50.130Z,18.10
2022-12-22T17:16:20.636Z,18.00
2022-12-22T17:18:47.638Z,18.00
2022-12-22T17:21:15.798Z,18.00
2022-12-22T17:23:44.262Z,18.10
2022-12-22T17:26:12.812Z,18.10
2022-12-22T17:28:39.898Z,18.10
2022-12-22T17:31:06.662Z,18.00
2022-12-22T17:33:33.332Z,18.10
2022-12-22T17:36:00.962Z,18.10
2022-12-22T17:38:28.864Z,18.20
2022-12-22T17:40:57.387Z,18.10
2022-12-22T17:43:23.990Z,18.00
2022-12-22T17:45:50.754Z,17.90
2022-12-22T17:48:17.501Z,17.90
2022-12-22T17:50:44.906Z,17.90
2022-12-22T17:53:14.020Z,18.00
2022-12-22T17:56:07.233Z,18.00
2022-12-22T17:58:27.345Z,18.20
2022-12-22T18:00:53.937Z,18.20
2022-12-22T18:03:20.796Z,18.20
2022-12-22T18:06:05.950Z,18.20
2022-12-22T18:08:51.868Z,18.10
2022-12-22T18:11:45.459Z,18.10
2022-12-22T18:14:32.831Z,18.10
2022-12-22T18:17:29.882Z,18.10
2022-12-22T18:20:24.628Z,18.10
2022-12-22T18:23:17.235Z,18.10
2022-12-22T18:25:43.849Z,18.10
2022-12-22T18:28:14.611Z,18.10
2022-12-22T18:30:41.489Z,18.10
2022-12-22T18:33:08.167Z,18.10
2022-12-22T18:35:35.218Z,18.10
2022-12-22T18:38:01.998Z,18.10
2022-12-22T18:40:36.743Z,18.20
2022-12-22T18:43:06.195Z,18.20
2022-12-22T18:45:32.780Z,18.20
2022-12-22T18:47:59.387Z,18.20
2022-12-22T18:50:27.463Z,18.20
2022-12-22T18:52:54.897Z,18.10
2022-12-22T18:55:22.735Z,18.10
2022-12-22T18:57:50.062Z,18.10
2022-12-22T19:00:24.056Z,18.20
2022-12-22T19:02:52.270Z,18.10
2022-12-22T19:05:19.032Z,18.10
2022-12-22T19:07:46.373Z,18.10
2022-12-22T19:10:17.620Z,18.10
2022-12-22T19:12:46.765Z,18.20
2022-12-22T19:15:19.742Z,18.10
2022-12-22T19:17:46.407Z,18.10
2022-12-22T19:20:17.469Z,18.10
2022-12-22T19:22:44.396Z,18.30
2022-12-22T19:25:14.907Z,18.10
2022-12-22T19:27:41.648Z,18.10
2022-12-22T19:30:14.023Z,18.10
2022-12-22T19:32:43.207Z,18.10
2022-12-22T19:35:14.169Z,18.20
2022-12-22T19:37:40.792Z,18.10
2022-12-22T19:40:07.660Z,18.10
2022-12-22T19:42:34.758Z,18.10
2022-12-22T19:45:06.912Z,18.10
2022-12-22T19:47:36.941Z,18.10
2022-12-22T19:50:03.606Z,18.00
2022-12-22T19:52:30.345Z,18.10
2022-12-22T19:54:56.921Z,18.10
2022-12-22T19:57:24.015Z,18.20
2022-12-22T19:59:51.356Z,18.00
2022-12-22T20:02:21.192Z,18.10
2022-12-22T20:04:48.418Z,18.10
2022-12-22T20:07:22.279Z,18.10
2022-12-22T20:09:48.915Z,18.10
2022-12-22T20:12:24.552Z,18.10
2022-12-22T20:14:51.548Z,18.00
2022-12-22T20:17:18.428Z,18.10
2022-12-22T20:19:45.006Z,18.10
2022-12-22T20:22:18.176Z,18.10
2022-12-22T20:24:45.391Z,18.20
2022-12-22T20:27:23.220Z,18.10
2022-12-22T20:29:49.784Z,18.10
2022-12-22T20:32:18.720Z,18.10
2022-12-22T20:34:49.083Z,18.10
2022-12-22T20:37:16.615Z,18.10
2022-12-22T20:39:43.652Z,18.10
2022-12-22T20:42:17.567Z,18.00
2022-12-22T20:45:02.792Z,18.00
2022-12-22T20:47:31.105Z,18.00
2022-12-22T20:49:57.658Z,18.00
2022-12-22T20:52:24.353Z,18.00
2022-12-22T20:54:51.075Z,18.00
2022-12-22T20:57:17.764Z,18.10
2022-12-22T20:59:48.177Z,18.10
2022-12-22T21:02:23.174Z,18.10
2022-12-22T21:04:49.975Z,18.00
2022-12-22T21:07:16.552Z,17.90
2022-12-22T21:09:43.162Z,18.10
2022-12-22T21:12:09.792Z,18.00
2022-12-22T21:14:36.363Z,17.90
2022-12-22T21:17:03.063Z,18.00
2022-12-22T21:19:29.797Z,17.90
2022-12-22T21:21:56.368Z,18.00
2022-12-22T21:24:22.966Z,18.00
2022-12-22T21:26:52.532Z,18.00
2022-12-22T21:29:21.377Z,18.10
2022-12-22T21:31:48.053Z,18.20
2022-12-22T21:34:14.661Z,18.20
2022-12-22T21:36:43.580Z,18.40
2022-12-22T21:39:16.025Z,18.40
2022-12-22T21:42:00.822Z,18.40
2022-12-22T21:44:28.010Z,18.50
2022-12-22T21:46:56.002Z,18.50
2022-12-22T21:49:27.150Z,18.50
2022-12-22T21:51:54.599Z,18.50
2022-12-22T21:54:21.857Z,18.40
2022-12-22T21:56:48.970Z,18.40
2022-12-22T21:59:15.703Z,18.30
2022-12-22T22:01:42.790Z,18.30
2022-12-22T22:04:09.778Z,18.30
2022-12-22T22:06:36.484Z,18.40
2022-12-22T22:09:05.108Z,18.30
2022-12-22T22:11:31.919Z,18.30
2022-12-22T22:13:58.548Z,18.40
2022-12-22T22:16:26.424Z,18.40
2022-12-22T22:18:53.194Z,18.30
2022-12-22T22:21:19.914Z,18.30
2022-12-22T22:23:46.556Z,18.10
2022-12-22T22:26:13.102Z,18.40
2022-12-22T22:28:39.814Z,18.40
2022-12-22T22:31:10.826Z,18.50
2022-12-22T22:33:37.718Z,18.30
2022-12-22T22:36:07.791Z,18.30
2022-12-22T22:38:34.425Z,18.30
2022-12-22T22:41:00.993Z,18.30
2022-12-22T22:43:27.675Z,18.30
2022-12-22T22:45:54.670Z,18.30
2022-12-22T22:48:22.538Z,18.30
2022-12-22T22:50:49.407Z,18.40
2022-12-22T22:53:16.335Z,18.20
2022-12-22T22:55:42.955Z,18.20
2022-12-22T22:58:11.391Z,18.30
2022-12-22T23:00:40.275Z,18.30
2022-12-22T23:03:07.026Z,18.30
2022-12-22T23:05:33.700Z,18.30
2022-12-22T23:08:00.316Z,18.40
2022-12-22T23:10:26.970Z,18.30
2022-12-22T23:12:54.165Z,18.30
2022-12-22T23:15:20.806Z,18.30
2022-12-22T23:17:47.401Z,18.30
2022-12-22T23:20:13.971Z,18.30
2022-12-22T23:22:40.576Z,18.20
2022-12-22T23:25:07.942Z,18.40
2022-12-22T23:27:34.716Z,18.20
2022-12-22T23:30:01.319Z,18.30
2022-12-22T23:32:27.886Z,18.20
2022-12-22T23:34:54.483Z,18.30
2022-12-22T23:37:21.024Z,18.30
2022-12-22T23:39:47.672Z,18.30
2022-12-22T23:42:14.231Z,18.30
2022-12-22T23:44:40.870Z,18.40
2022-12-22T23:47:07.774Z,18.50
2022-12-22T23:49:34.453Z,18.30
2022-12-22T23:52:01.048Z,18.30
2022-12-22T23:54:30.373Z,18.20
2022-12-22T23:56:57.044Z,18.10
2022-12-22T23:59:23.614Z,18.30
